createdAt,value
2018-02-02T00:00:25.291Z,93.69
2018-02-02T00:02:55.829Z,93.64
2018-02-02T00:05:24.145Z,93.68
2018-02-02T00:07:55.056Z,93.65
2018-02-02T00:10:23.684Z,93.56
2018-02-02T00:12:52.249Z,93.53
2018-02-02T00:15:20.591Z,93.53
2018-02-02T00:17:49.687Z,93.49
2018-02-02T00:20:18.081Z,93.33
2018-02-02T00:22:46.475Z,93.44
2018-02-02T00:25:14.921Z,93.53
2018-02-02T00:27:45.201Z,93.72
2018-02-02T00:30:15.875Z,93.71
2018-02-02T00:32:45.171Z,93.69
2018-02-02T00:35:13.455Z,93.59
2018-02-02T00:37:43.490Z,93.85
2018-02-02T00:40:11.845Z,93.83
2018-02-02T00:42:40.253Z,93.75
2018-02-02T00:45:10.419Z,93.80
2018-02-02T00:47:41.665Z,93.87
2018-02-02T00:50:11.954Z,93.79
2018-02-02T00:52:42.026Z,93.75
2018-02-02T00:55:13.307Z,93.77
2018-02-02T00:57:42.733Z,93.55
2018-02-02T01:00:11.170Z,93.69
2018-02-02T01:02:39.498Z,93.66
2018-02-02T01:05:07.881Z,93.54
2018-02-02T01:07:36.229Z,93.53
2018-02-02T01:10:04.635Z,93.33
2018-02-02T01:12:34.687Z,93.39
2018-02-02T01:15:04.952Z,93.47
2018-02-02T01:17:35.687Z,93.57
2018-02-02T01:20:05.753Z,93.63
2018-02-02T01:22:34.114Z,93.58
2018-02-02T01:25:03.214Z,93.41
2018-02-02T01:27:31.509Z,93.42
2018-02-02T01:29:59.876Z,93.65
2018-02-02T01:32:30.709Z,93.62
2018-02-02T01:34:58.998Z,93.70
2018-02-02T01:37:29.059Z,93.66
2018-02-02T01:39:59.074Z,93.55
2018-02-02T01:42:30.062Z,93.58
2018-02-02T01:44:59.170Z,93.65
2018-02-02T01:47:29.118Z,93.65
2018-02-02T01:49:59.280Z,93.67
2018-02-02T01:52:27.624Z,93.65
2018-02-02T01:54:55.962Z,93.55
2018-02-02T01:57:24.281Z,93.38
2018-02-02T01:59:52.818Z,93.36
2018-02-02T02:02:21.138Z,93.29
2018-02-02T02:04:51.710Z,93.26
2018-02-02T02:07:20.038Z,93.29
2018-02-02T02:09:50.470Z,93.52
2018-02-02T02:12:18.848Z,93.64
2018-02-02T02:14:49.708Z,93.56
2018-02-02T02:17:19.673Z,93.48
2018-02-02T02:19:48.398Z,93.26
2018-02-02T02:22:16.770Z,93.05
2018-02-02T02:24:45.126Z,92.99
2018-02-02T02:27:15.276Z,92.91
2018-02-02T02:29:43.631Z,93.05
2018-02-02T02:32:11.959Z,92.95
2018-02-02T02:34:43.182Z,92.86
2018-02-02T02:37:11.533Z,92.89
2018-02-02T02:39:42.494Z,92.80
2018-02-02T02:42:12.462Z,92.88
2018-02-02T02:44:40.799Z,92.77
2018-02-02T02:47:10.828Z,92.62
2018-02-02T02:49:39.206Z,92.91
2018-02-02T02:52:07.601Z,92.85
2018-02-02T02:54:37.639Z,92.80
2018-02-02T02:57:06.824Z,92.89
2018-02-02T02:59:36.199Z,93.01
2018-02-02T03:02:04.574Z,92.84
2018-02-02T03:04:32.889Z,92.96
2018-02-02T03:07:02.844Z,92.78
2018-02-02T03:09:31.218Z,92.72
2018-02-02T03:11:59.504Z,92.62
2018-02-02T03:14:29.954Z,92.65
2018-02-02T03:16:58.997Z,92.72
2018-02-02T03:19:28.091Z,92.51
2018-02-02T03:21:57.213Z,92.43
2018-02-02T03:24:27.462Z,92.19
2018-02-02T03:27:00.038Z,92.35
2018-02-02T03:29:28.620Z,92.29
2018-02-02T03:31:56.958Z,92.20
2018-02-02T03:34:27.401Z,92.22
2018-02-02T03:36:56.488Z,92.01
2018-02-02T03:39:24.779Z,92.10
2018-02-02T03:41:53.092Z,92.26
2018-02-02T03:44:21.433Z,92.23
2018-02-02T03:46:50.528Z,92.21
2018-02-02T03:49:18.838Z,92.34
2018-02-02T03:51:47.191Z,92.42
2018-02-02T03:54:15.552Z,92.22
2018-02-02T03:56:45.690Z,92.20
2018-02-02T03:59:14.089Z,92.02
2018-02-02T04:01:45.051Z,92.03
2018-02-02T04:04:13.503Z,91.77
2018-02-02T04:06:41.957Z,91.92
2018-02-02T04:09:10.311Z,92.32
2018-02-02T04:11:39.363Z,92.31
2018-02-02T04:14:07.729Z,92.26
2018-02-02T04:16:36.037Z,92.13
2018-02-02T04:19:06.124Z,92.13
2018-02-02T04:21:34.441Z,91.88
2018-02-02T04:24:04.327Z,91.82
2018-02-02T04:26:32.699Z,91.80
2018-02-02T04:29:02.497Z,91.70
2018-02-02T04:31:32.587Z,91.48
2018-02-02T04:34:00.965Z,91.46
2018-02-02T04:36:30.047Z,91.30
2018-02-02T04:38:58.573Z,91.41
2018-02-02T04:41:27.728Z,91.08
2018-02-02T04:43:57.835Z,91.20
2018-02-02T04:46:26.939Z,91.23
2018-02-02T04:48:55.263Z,91.24
2018-02-02T04:51:23.567Z,91.18
2018-02-02T04:53:52.035Z,91.03
2018-02-02T04:56:22.535Z,90.95
2018-02-02T04:58:53.879Z,91.09
2018-02-02T05:01:22.261Z,91.12
2018-02-02T05:03:50.622Z,91.09
2018-02-02T05:06:21.087Z,91.08
2018-02-02T05:08:50.916Z,91.08
2018-02-02T05:11:22.369Z,91.18
2018-02-02T05:13:52.473Z,91.04
2018-02-02T05:16:20.863Z,91.44
2018-02-02T05:18:49.279Z,91.46
2018-02-02T05:21:17.604Z,91.41
2018-02-02T05:23:46.031Z,91.53
2018-02-02T05:26:16.222Z,91.53
2018-02-02T05:28:45.515Z,91.75
2018-02-02T05:31:15.571Z,91.96
2018-02-02T05:33:44.009Z,91.87
2018-02-02T05:36:12.576Z,92.01
2018-02-02T05:38:40.950Z,92.13
2018-02-02T05:41:11.087Z,92.12
2018-02-02T05:43:39.794Z,92.00
2018-02-02T05:46:09.863Z,92.07
2018-02-02T05:48:38.213Z,92.12
2018-02-02T05:51:07.305Z,92.02
2018-02-02T05:53:35.614Z,91.90
2018-02-02T05:56:07.039Z,92.07
2018-02-02T05:58:35.517Z,92.34
2018-02-02T06:01:03.931Z,92.21
2018-02-02T06:03:33.867Z,92.07
2018-02-02T06:06:04.719Z,91.86
2018-02-02T06:08:33.893Z,91.68
2018-02-02T06:11:03.085Z,91.77
2018-02-02T06:13:31.416Z,91.98
2018-02-02T06:15:59.801Z,92.21
2018-02-02T06:18:29.909Z,92.22
2018-02-02T06:21:00.159Z,92.02
2018-02-02T06:23:30.957Z,92.12
2018-02-02T06:25:59.297Z,92.17
2018-02-02T06:28:29.257Z,92.03
2018-02-02T06:30:57.666Z,92.03
2018-02-02T06:33:25.977Z,92.21
2018-02-02T06:35:54.391Z,92.22
2018-02-02T06:38:23.473Z,92.07
2018-02-02T06:40:55.029Z,92.36
2018-02-02T06:43:23.383Z,92.31
2018-02-02T06:45:51.761Z,92.13
2018-02-02T06:48:20.113Z,92.27
2018-02-02T06:50:48.532Z,92.35
2018-02-02T06:53:16.877Z,92.43
2018-02-02T06:55:46.319Z,92.07
2018-02-02T06:58:15.754Z,92.14
2018-02-02T07:00:44.232Z,92.05
2018-02-02T07:03:14.413Z,91.98
2018-02-02T07:05:42.855Z,92.03
2018-02-02T07:08:13.036Z,91.85
2018-02-02T07:10:43.086Z,91.83
2018-02-02T07:13:11.503Z,92.02
2018-02-02T07:15:42.435Z,91.71
2018-02-02T07:18:10.802Z,91.44
2018-02-02T07:20:39.280Z,91.40
2018-02-02T07:23:09.288Z,91.44
2018-02-02T07:25:37.775Z,91.21
2018-02-02T07:28:07.865Z,90.95
2018-02-02T07:30:38.012Z,91.02
2018-02-02T07:33:06.425Z,90.89
2018-02-02T07:35:35.601Z,90.72
2018-02-02T07:38:04.995Z,90.72
2018-02-02T07:40:34.803Z,90.62
2018-02-02T07:43:03.125Z,90.32
2018-02-02T07:45:34.165Z,90.17
2018-02-02T07:48:04.437Z,90.00
2018-02-02T07:50:35.646Z,90.01
2018-02-02T07:53:04.112Z,89.69
2018-02-02T07:55:36.383Z,89.91
2018-02-02T07:58:04.680Z,89.87
2018-02-02T08:00:39.752Z,89.92
2018-02-02T08:03:10.822Z,89.42
2018-02-02T08:05:40.216Z,89.72
2018-02-02T08:08:11.252Z,89.77
2018-02-02T08:10:39.643Z,89.78
2018-02-02T08:13:09.476Z,89.45
2018-02-02T08:15:39.646Z,88.96
2018-02-02T08:18:09.834Z,89.07
2018-02-02T08:20:38.179Z,88.77
2018-02-02T08:23:07.527Z,88.83
2018-02-02T08:25:35.870Z,88.85
2018-02-02T08:28:06.020Z,89.10
2018-02-02T08:30:37.044Z,89.18
2018-02-02T08:33:05.472Z,89.40
2018-02-02T08:35:33.903Z,88.92
2018-02-02T08:38:04.036Z,89.22
2018-02-02T08:40:33.136Z,88.73
2018-02-02T08:43:01.724Z,88.59
2018-02-02T08:45:32.623Z,88.18
2018-02-02T08:48:06.336Z,88.46
2018-02-02T08:50:35.978Z,88.34
2018-02-02T08:53:04.349Z,88.36
2018-02-02T08:55:34.406Z,88.31
2018-02-02T08:58:02.766Z,88.03
2018-02-02T09:00:31.758Z,87.81
2018-02-02T09:03:04.394Z,87.83
2018-02-02T09:05:32.751Z,87.07
2018-02-02T09:08:01.097Z,87.30
2018-02-02T09:10:29.455Z,87.37
2018-02-02T09:12:57.951Z,86.80
2018-02-02T09:15:26.953Z,87.25
2018-02-02T09:17:57.678Z,87.30
2018-02-02T09:20:26.783Z,86.89
2018-02-02T09:22:55.289Z,87.17
2018-02-02T09:25:25.454Z,86.57
2018-02-02T09:27:53.352Z,86.28
2018-02-02T09:30:21.822Z,86.31
2018-02-02T09:32:50.191Z,85.69
2018-02-02T09:35:18.656Z,85.57
2018-02-02T09:37:47.010Z,85.56
2018-02-02T09:40:15.860Z,85.39
2018-02-02T09:42:44.276Z,85.40
2018-02-02T09:45:14.332Z,86.09
2018-02-02T09:47:42.784Z,85.72
2018-02-02T09:50:11.120Z,84.17
2018-02-02T09:52:39.544Z,84.31
2018-02-02T09:55:09.493Z,83.69
2018-02-02T09:57:37.893Z,82.87
2018-02-02T10:00:06.292Z,83.27
2018-02-02T10:02:34.807Z,82.22
2018-02-02T10:05:04.008Z,82.63
2018-02-02T10:07:32.395Z,81.37
2018-02-02T10:10:00.771Z,81.22
2018-02-02T10:12:29.174Z,81.24
2018-02-02T10:14:57.684Z,81.20
2018-02-02T10:17:26.054Z,80.83
2018-02-02T10:19:54.338Z,80.10
2018-02-02T10:22:22.934Z,82.14
2018-02-02T10:24:51.378Z,78.36
2018-02-02T10:27:19.696Z,78.98
2018-02-02T10:29:48.042Z,78.59
2018-02-02T10:32:17.992Z,78.24
2018-02-02T10:34:46.377Z,77.59
2018-02-02T10:37:17.358Z,77.42
2018-02-02T10:39:45.820Z,76.35
2018-02-02T10:42:14.214Z,77.06
2018-02-02T10:44:44.766Z,77.94
2018-02-02T10:47:13.067Z,77.83
2018-02-02T10:49:41.906Z,75.65
2018-02-02T10:52:10.350Z,76.18
2018-02-02T10:54:40.446Z,76.77
2018-02-02T10:57:10.828Z,76.04
2018-02-02T10:59:41.752Z,76.21
2018-02-02T11:02:15.698Z,75.95
2018-02-02T11:04:44.009Z,76.97
2018-02-02T11:07:13.106Z,75.32
2018-02-02T11:09:41.482Z,76.58
2018-02-02T11:12:09.961Z,75.77
2018-02-02T11:14:42.509Z,76.20
2018-02-02T11:17:10.951Z,75.73
2018-02-02T11:19:39.394Z,76.41
2018-02-02T11:22:07.774Z,75.16
2018-02-02T11:24:36.145Z,74.66
2018-02-02T11:27:04.540Z,75.65
2018-02-02T11:29:32.929Z,74.72
2018-02-02T11:32:03.504Z,74.84
2018-02-02T11:34:31.883Z,74.51
2018-02-02T11:37:00.241Z,75.51
2018-02-02T11:39:28.524Z,74.64
2018-02-02T11:41:56.849Z,74.65
2018-02-02T11:44:25.193Z,74.93
2018-02-02T11:46:53.464Z,75.26
2018-02-02T11:49:21.820Z,74.86
2018-02-02T11:51:50.200Z,73.28
2018-02-02T11:54:20.466Z,73.59
2018-02-02T11:56:51.257Z,74.16
2018-02-02T11:59:21.111Z,73.22
2018-02-02T12:01:49.661Z,73.41
2018-02-02T12:04:18.033Z,72.89
2018-02-02T12:06:46.454Z,72.70
2018-02-02T12:09:14.834Z,72.16
2018-02-02T12:11:46.701Z,71.92
2018-02-02T12:14:15.021Z,72.25
2018-02-02T12:16:43.353Z,71.86
2018-02-02T12:19:11.841Z,71.50
2018-02-02T12:21:42.478Z,71.99
2018-02-02T12:24:22.552Z,71.02
2018-02-02T12:26:57.142Z,72.30
2018-02-02T12:29:26.151Z,71.12
2018-02-02T12:31:55.238Z,70.85
2018-02-02T12:34:25.474Z,69.10
2018-02-02T12:36:53.829Z,69.53
2018-02-02T12:39:24.723Z,69.46
2018-02-02T12:41:53.308Z,68.55
2018-02-02T12:44:21.735Z,68.65
2018-02-02T12:46:51.972Z,68.01
2018-02-02T12:49:34.322Z,68.56
2018-02-02T12:52:06.126Z,66.62
2018-02-02T12:54:37.995Z,66.82
2018-02-02T12:57:08.819Z,68.32
2018-02-02T12:59:38.235Z,68.28
2018-02-02T13:02:06.829Z,67.81
2018-02-02T13:04:37.763Z,66.16
2018-02-02T13:07:06.277Z,65.95
2018-02-02T13:09:34.645Z,66.60
2018-02-02T13:12:03.075Z,66.90
2018-02-02T13:14:31.567Z,67.60
2018-02-02T13:17:00.144Z,65.85
2018-02-02T13:19:31.120Z,67.30
2018-02-02T13:22:01.045Z,67.29
2018-02-02T13:24:29.994Z,67.57
2018-02-02T13:26:58.374Z,67.32
2018-02-02T13:29:27.529Z,66.98
2018-02-02T13:31:58.827Z,67.99
2018-02-02T13:34:29.047Z,68.01
2018-02-02T13:36:58.132Z,67.32
2018-02-02T13:39:26.509Z,67.51
2018-02-02T13:41:56.172Z,67.87
2018-02-02T13:44:27.480Z,68.03
2018-02-02T13:46:56.048Z,67.93
2018-02-02T13:49:25.513Z,66.37
2018-02-02T13:51:55.636Z,66.50
2018-02-02T13:54:24.274Z,67.81
2018-02-02T13:56:52.758Z,66.62
2018-02-02T13:59:21.164Z,68.36
2018-02-02T14:01:49.518Z,66.99
2018-02-02T14:04:19.647Z,66.13
2018-02-02T14:06:48.107Z,66.51
2018-02-02T14:09:17.452Z,65.17
2018-02-02T14:11:47.745Z,65.68
2018-02-02T14:14:17.012Z,66.72
2018-02-02T14:16:48.170Z,66.14
2018-02-02T14:19:16.530Z,66.01
2018-02-02T14:21:46.374Z,65.28
2018-02-02T14:24:14.820Z,64.64
2018-02-02T14:26:45.995Z,64.67
2018-02-02T14:29:14.646Z,66.31
2018-02-02T14:31:45.702Z,65.23
2018-02-02T14:34:14.206Z,64.32
2018-02-02T14:36:42.675Z,64.01
2018-02-02T14:39:11.074Z,64.05
2018-02-02T14:41:39.446Z,64.06
2018-02-02T14:44:09.483Z,62.46
2018-02-02T14:46:39.632Z,63.52
2018-02-02T14:49:08.159Z,62.40
2018-02-02T14:51:37.396Z,63.02
2018-02-02T14:54:06.084Z,62.84
2018-02-02T14:56:35.683Z,62.68
2018-02-02T14:59:05.296Z,62.07
2018-02-02T15:01:34.879Z,62.62
2018-02-02T15:04:05.405Z,62.96
2018-02-02T15:06:39.222Z,63.67
2018-02-02T15:09:11.572Z,63.14
2018-02-02T15:11:39.954Z,63.93
2018-02-02T15:14:08.359Z,63.76
2018-02-02T15:16:36.708Z,63.36
2018-02-02T15:19:06.971Z,63.29
2018-02-02T15:21:36.713Z,63.97
2018-02-02T15:24:09.475Z,63.15
2018-02-02T15:26:37.834Z,63.19
2018-02-02T15:29:08.390Z,63.60
2018-02-02T15:31:37.434Z,63.95
2018-02-02T15:34:06.273Z,64.32
2018-02-02T15:36:37.219Z,64.92
2018-02-02T15:39:07.729Z,65.24
2018-02-02T15:41:38.620Z,64.41
2018-02-02T15:44:07.001Z,64.69
2018-02-02T15:46:39.250Z,65.21
2018-02-02T15:49:10.205Z,65.42
2018-02-02T15:51:38.947Z,65.79
2018-02-02T15:54:07.477Z,66.15
2018-02-02T15:56:35.937Z,66.93
2018-02-02T15:59:05.361Z,66.72
2018-02-02T16:01:33.931Z,66.90
2018-02-02T16:06:37.584Z,67.47
2018-02-02T16:09:07.836Z,67.25
2018-02-02T16:11:38.948Z,67.81
2018-02-02T16:14:10.065Z,67.68
2018-02-02T16:16:40.579Z,67.83
2018-02-02T16:19:11.497Z,67.79
2018-02-02T16:21:40.963Z,67.64
2018-02-02T16:24:09.303Z,67.50
2018-02-02T16:26:37.650Z,67.70
2018-02-02T16:29:08.797Z,67.83
2018-02-02T16:31:37.951Z,67.33
2018-02-02T16:34:09.821Z,68.48
2018-02-02T16:36:39.456Z,67.93
2018-02-02T16:39:09.885Z,68.36
2018-02-02T16:41:40.863Z,67.82
2018-02-02T16:44:12.237Z,68.09
2018-02-02T16:46:41.330Z,68.43
2018-02-02T16:49:11.671Z,68.00
2018-02-02T16:51:43.953Z,68.49
2018-02-02T16:54:12.742Z,68.44
2018-02-02T16:56:41.140Z,68.56
2018-02-02T16:59:09.549Z,68.92
2018-02-02T17:01:37.870Z,68.99
2018-02-02T17:04:07.731Z,69.21
2018-02-02T17:06:36.480Z,68.88
2018-02-02T17:09:05.209Z,69.21
2018-02-02T17:11:33.602Z,69.60
2018-02-02T17:14:04.627Z,69.59
2018-02-02T17:16:35.807Z,69.56
2018-02-02T17:19:05.372Z,70.26
2018-02-02T17:21:33.906Z,70.04
2018-02-02T17:24:02.240Z,70.58
2018-02-02T17:26:30.675Z,70.63
2018-02-02T17:28:58.985Z,70.80
2018-02-02T17:31:27.563Z,71.30
2018-02-02T17:33:56.997Z,70.79
2018-02-02T17:36:28.195Z,70.97
2018-02-02T17:38:56.772Z,71.60
2018-02-02T17:41:26.287Z,71.44
2018-02-02T17:43:56.639Z,71.48
2018-02-02T17:46:27.981Z,71.49
2018-02-02T17:48:58.326Z,71.87
2018-02-02T17:51:30.339Z,71.87
2018-02-02T17:53:58.681Z,71.91
2018-02-02T17:56:27.245Z,71.87
2018-02-02T17:58:58.065Z,71.79
2018-02-02T18:04:29.187Z,71.97
2018-02-02T18:07:00.844Z,72.89
2018-02-02T18:09:29.229Z,72.53
2018-02-02T18:11:59.310Z,72.79
2018-02-02T18:14:27.720Z,72.82
2018-02-02T18:17:00.372Z,72.66
2018-02-02T18:19:29.539Z,72.60
2018-02-02T18:21:57.934Z,73.35
2018-02-02T18:24:26.705Z,72.67
2018-02-02T18:26:59.113Z,72.88
2018-02-02T18:29:30.148Z,72.79
2018-02-02T18:32:02.301Z,72.55
2018-02-02T18:34:32.188Z,72.37
2018-02-02T18:37:00.651Z,72.58
2018-02-02T18:39:29.160Z,72.52
2018-02-02T18:41:58.366Z,72.48
2018-02-02T18:44:27.526Z,72.80
2018-02-02T18:46:57.169Z,72.76
2018-02-02T18:49:25.748Z,72.69
2018-02-02T18:51:54.430Z,72.81
2018-02-02T18:54:23.040Z,72.96
2018-02-02T18:56:51.390Z,72.84
2018-02-02T18:59:21.491Z,73.07
2018-02-02T19:01:50.442Z,73.18
2018-02-02T19:04:20.947Z,73.26
2018-02-02T19:06:49.712Z,73.01
2018-02-02T19:09:19.889Z,73.11
2018-02-02T19:11:49.060Z,72.92
2018-02-02T19:14:21.698Z,72.85
2018-02-02T19:16:51.940Z,72.87
2018-02-02T19:19:21.634Z,72.83
2018-02-02T19:21:52.191Z,72.96
2018-02-02T19:24:21.543Z,73.10
2018-02-02T19:26:50.077Z,73.07
2018-02-02T19:29:21.384Z,73.42
2018-02-02T19:31:50.558Z,73.00
2018-02-02T19:34:19.452Z,73.36
2018-02-02T19:36:52.088Z,73.04
2018-02-02T19:39:20.708Z,72.99
2018-02-02T19:41:49.225Z,73.24
2018-02-02T19:44:17.900Z,73.48
2018-02-02T19:46:48.282Z,73.66
2018-02-02T19:49:16.795Z,73.97
2018-02-02T19:51:45.223Z,73.84
2018-02-02T19:54:16.403Z,73.76
2018-02-02T19:56:46.700Z,73.87
2018-02-02T19:59:19.455Z,73.84
2018-02-02T20:01:52.120Z,74.07
2018-02-02T20:04:22.817Z,73.84
2018-02-02T20:06:51.231Z,73.76
2018-02-02T20:09:21.435Z,73.64
2018-02-02T20:11:50.246Z,73.51
2018-02-02T20:14:18.687Z,73.83
2018-02-02T20:16:48.372Z,73.81
2018-02-02T20:19:17.646Z,73.92
2018-02-02T20:21:47.267Z,74.24
2018-02-02T20:24:15.956Z,74.41
2018-02-02T20:26:46.116Z,74.61
2018-02-02T20:29:15.609Z,74.23
2018-02-02T20:31:44.362Z,74.61
2018-02-02T20:34:13.100Z,74.67
2018-02-02T20:36:43.184Z,74.48
2018-02-02T20:39:15.043Z,74.60
2018-02-02T20:41:44.540Z,74.83
2018-02-02T20:44:15.751Z,74.62
2018-02-02T20:46:44.498Z,74.98
2018-02-02T20:49:14.695Z,75.29
2018-02-02T20:51:46.010Z,75.10
2018-02-02T20:54:16.820Z,75.21
2018-02-02T20:56:46.022Z,75.62
2018-02-02T20:59:16.409Z,75.44
2018-02-02T21:01:47.357Z,74.95
2018-02-02T21:04:17.636Z,75.12
2018-02-02T21:06:49.678Z,75.33
2018-02-02T21:09:18.912Z,75.57
2018-02-02T21:11:47.311Z,75.59
2018-02-02T21:14:17.046Z,75.58
2018-02-02T21:16:45.407Z,75.93
2018-02-02T21:19:16.356Z,75.85
2018-02-02T21:21:46.805Z,76.12
2018-02-02T21:24:19.400Z,75.97
2018-02-02T21:26:49.646Z,76.06
2018-02-02T21:29:24.735Z,76.28
2018-02-02T21:31:54.032Z,76.42
2018-02-02T21:34:22.640Z,76.37
2018-02-02T21:36:52.788Z,76.54
2018-02-02T21:39:22.797Z,76.71
2018-02-02T21:41:52.971Z,76.83
2018-02-02T21:44:21.343Z,76.98
2018-02-02T21:46:50.567Z,77.02
2018-02-02T21:49:18.947Z,76.84
2018-02-02T21:51:50.024Z,76.89
2018-02-02T21:54:20.585Z,76.89
2018-02-02T21:56:50.735Z,77.10
2018-02-02T21:59:19.367Z,76.92
2018-02-02T22:01:47.735Z,77.07
2018-02-02T22:04:17.023Z,77.12
2018-02-02T22:06:48.284Z,77.17
2018-02-02T22:09:18.405Z,77.25
2018-02-02T22:11:51.124Z,77.27
2018-02-02T22:14:21.068Z,77.21
2018-02-02T22:16:49.502Z,77.84
2018-02-02T22:19:21.976Z,77.15
2018-02-02T22:21:52.036Z,77.13
2018-02-02T22:24:21.257Z,77.35
2018-02-02T22:26:51.434Z,77.31
2018-02-02T22:31:54.518Z,77.65
2018-02-02T22:34:28.065Z,77.72
2018-02-02T22:36:58.312Z,77.89
2018-02-02T22:39:26.763Z,77.96
2018-02-02T22:41:56.671Z,77.90
2018-02-02T22:44:25.912Z,77.99
2018-02-02T22:46:55.097Z,77.75
2018-02-02T22:49:24.135Z,78.00
2018-02-02T22:51:52.497Z,78.00
2018-02-02T22:54:20.826Z,77.46
2018-02-02T22:56:49.552Z,77.55
2018-02-02T22:59:19.756Z,77.88
2018-02-02T23:01:50.103Z,78.30
2018-02-02T23:04:22.285Z,78.15
2018-02-02T23:06:52.703Z,78.07
2018-02-02T23:09:23.752Z,78.30
2018-02-02T23:11:55.104Z,78.03
2018-02-02T23:14:25.343Z,78.15
2018-02-02T23:16:57.062Z,78.20
2018-02-02T23:19:26.414Z,78.40
2018-02-02T23:21:56.670Z,78.37
2018-02-02T23:24:26.761Z,78.36
2018-02-02T23:26:55.208Z,78.32
2018-02-02T23:29:24.313Z,78.11
2018-02-02T23:31:53.672Z,78.26
2018-02-02T23:34:22.988Z,78.21
2018-02-02T23:36:52.187Z,77.89
2018-02-02T23:39:20.589Z,77.95
2018-02-02T23:41:50.788Z,78.23
2018-02-02T23:44:22.348Z,78.09
2018-02-02T23:46:50.909Z,77.83
2018-02-02T23:49:21.810Z,78.46
2018-02-02T23:51:52.029Z,78.65
2018-02-02T23:54:22.203Z,78.70
2018-02-02T23:56:53.231Z,78.81
2018-02-02T23:59:22.743Z,78.89
